createdAt,value
2022-11-21T00:01:50.934Z,74.20
2022-11-21T00:04:19.927Z,73.92
2022-11-21T00:06:51.831Z,74.09
2022-11-21T00:09:21.008Z,74.01
2022-11-21T00:11:52.811Z,74.08
2022-11-21T00:14:22.177Z,74.11
2022-11-21T00:16:59.196Z,74.09
2022-11-21T00:19:36.455Z,73.88
2022-11-21T00:22:05.610Z,74.30
2022-11-21T00:24:39.098Z,74.11
2022-11-21T00:27:08.651Z,74.41
2022-11-21T00:29:37.543Z,74.52
2022-11-21T00:32:08.838Z,74.34
2022-11-21T00:34:37.735Z,74.25
2022-11-21T00:37:06.639Z,74.33
2022-11-21T00:39:39.235Z,74.17
2022-11-21T00:42:16.623Z,74.39
2022-11-21T00:44:48.491Z,74.44
2022-11-21T00:47:19.378Z,74.35
2022-11-21T00:49:48.610Z,74.49
2022-11-21T00:52:18.340Z,74.39
2022-11-21T00:54:49.678Z,74.39
2022-11-21T00:57:20.779Z,74.38
2022-11-21T00:59:50.462Z,74.47
2022-11-21T01:02:19.460Z,74.48
2022-11-21T01:04:50.389Z,74.66
2022-11-21T01:07:19.170Z,74.59
2022-11-21T01:09:48.245Z,74.60
2022-11-21T01:12:20.459Z,74.62
2022-11-21T01:14:52.361Z,74.44
2022-11-21T01:17:22.179Z,74.59
2022-11-21T01:19:50.994Z,74.58
2022-11-21T01:22:20.291Z,74.56
2022-11-21T01:24:51.796Z,74.50
2022-11-21T01:27:21.013Z,74.39
2022-11-21T01:29:52.177Z,74.59
2022-11-21T01:32:21.197Z,74.64
2022-11-21T01:34:50.046Z,74.69
2022-11-21T01:37:19.036Z,74.66
2022-11-21T01:39:48.174Z,74.29
2022-11-21T01:42:17.162Z,74.42
2022-11-21T01:44:50.627Z,74.46
2022-11-21T01:47:22.381Z,74.68
2022-11-21T01:49:53.664Z,74.43
2022-11-21T01:52:25.813Z,74.38
2022-11-21T01:54:58.821Z,74.48
2022-11-21T01:57:32.340Z,74.36
2022-11-21T02:00:06.832Z,74.50
2022-11-21T02:02:37.689Z,74.52
2022-11-21T02:05:11.865Z,74.25
2022-11-21T02:07:45.065Z,74.40
2022-11-21T02:10:19.118Z,74.12
2022-11-21T02:12:52.209Z,74.08
2022-11-21T02:15:23.831Z,74.26
2022-11-21T02:17:53.246Z,74.15
2022-11-21T02:20:25.078Z,73.82
2022-11-21T02:23:02.650Z,74.26
2022-11-21T02:25:35.287Z,74.07
2022-11-21T02:28:06.288Z,74.23
2022-11-21T02:30:40.697Z,73.84
2022-11-21T02:33:11.283Z,74.49
2022-11-21T02:35:45.015Z,74.37
2022-11-21T02:38:20.904Z,74.57
2022-11-21T02:40:59.325Z,74.23
2022-11-21T02:43:36.105Z,73.99
2022-11-21T02:46:04.885Z,74.17
2022-11-21T02:48:34.721Z,74.17
2022-11-21T02:51:04.094Z,74.39
2022-11-21T02:53:34.349Z,74.58
2022-11-21T02:56:05.697Z,74.29
2022-11-21T02:58:35.438Z,74.04
2022-11-21T03:01:04.181Z,74.13
2022-11-21T03:03:34.751Z,73.98
2022-11-21T03:06:03.838Z,74.42
2022-11-21T03:08:34.323Z,74.12
2022-11-21T03:11:08.255Z,74.45
2022-11-21T03:13:37.647Z,74.46
2022-11-21T03:16:06.640Z,74.62
2022-11-21T03:18:36.465Z,74.25
2022-11-21T03:21:05.650Z,74.40
2022-11-21T03:23:39.456Z,74.01
2022-11-21T03:26:10.626Z,74.33
2022-11-21T03:28:59.347Z,74.32
2022-11-21T03:31:28.221Z,73.92
2022-11-21T03:33:57.048Z,74.43
2022-11-21T03:36:26.854Z,74.02
2022-11-21T03:38:58.341Z,74.08
2022-11-21T03:41:30.920Z,74.37
2022-11-21T03:44:03.707Z,74.51
2022-11-21T03:46:42.840Z,74.56
2022-11-21T03:49:12.114Z,74.56
2022-11-21T03:51:40.997Z,74.44
2022-11-21T03:54:10.416Z,74.52
2022-11-21T03:56:39.660Z,74.05
2022-11-21T03:59:08.380Z,73.99
2022-11-21T04:01:45.472Z,74.42
2022-11-21T04:04:14.167Z,74.07
2022-11-21T04:06:45.685Z,73.92
2022-11-21T04:09:14.408Z,73.76
2022-11-21T04:11:43.422Z,74.27
2022-11-21T04:14:12.178Z,74.16
2022-11-21T04:16:42.084Z,73.98
2022-11-21T04:19:11.156Z,74.64
2022-11-21T04:21:39.818Z,74.30
2022-11-21T04:24:10.631Z,74.74
2022-11-21T04:26:39.416Z,74.38
2022-11-21T04:29:08.809Z,74.24
2022-11-21T04:31:41.593Z,74.22
2022-11-21T04:34:10.460Z,74.05
2022-11-21T04:36:39.307Z,74.60
2022-11-21T04:39:11.010Z,74.20
2022-11-21T04:41:44.490Z,73.86
2022-11-21T04:44:12.920Z,73.95
2022-11-21T04:47:05.536Z,73.92
2022-11-21T04:49:39.774Z,74.41
2022-11-21T04:52:08.834Z,74.21
2022-11-21T04:54:37.823Z,74.20
2022-11-21T04:57:06.831Z,74.25
2022-11-21T04:59:37.363Z,74.46
2022-11-21T05:02:07.231Z,74.18
2022-11-21T05:04:37.793Z,74.33
2022-11-21T05:07:06.824Z,74.36
2022-11-21T05:09:36.136Z,74.25
2022-11-21T05:12:25.043Z,74.29
2022-11-21T05:14:53.780Z,74.78
2022-11-21T05:17:24.390Z,74.67
2022-11-21T05:19:53.300Z,75.07
2022-11-21T05:22:21.998Z,75.00
2022-11-21T05:24:50.885Z,74.25
2022-11-21T05:27:22.126Z,74.39
2022-11-21T05:29:52.842Z,74.15
2022-11-21T05:32:22.290Z,74.93
2022-11-21T05:34:52.258Z,74.97
2022-11-21T05:37:23.635Z,74.34
2022-11-21T05:39:52.420Z,75.04
2022-11-21T05:42:41.877Z,74.58
2022-11-21T05:45:11.716Z,74.96
2022-11-21T05:47:42.130Z,74.41
2022-11-21T05:50:13.271Z,74.74
2022-11-21T05:52:43.070Z,74.39
2022-11-21T05:55:12.127Z,74.35
2022-11-21T05:57:41.271Z,74.47
2022-11-21T06:00:18.506Z,74.39
2022-11-21T06:03:07.501Z,75.07
2022-11-21T06:05:36.646Z,75.05
2022-11-21T06:08:06.331Z,74.53
2022-11-21T06:10:42.431Z,74.64
2022-11-21T06:13:21.715Z,75.08
2022-11-21T06:15:52.934Z,74.80
2022-11-21T06:18:21.849Z,74.96
2022-11-21T06:20:51.485Z,74.69
2022-11-21T06:23:20.231Z,74.51
2022-11-21T06:25:56.656Z,74.67
2022-11-21T06:28:25.441Z,74.58
2022-11-21T06:30:54.325Z,74.72
2022-11-21T06:33:23.183Z,74.69
2022-11-21T06:36:01.286Z,74.84
2022-11-21T06:38:30.223Z,74.66
2022-11-21T06:41:03.825Z,75.28
2022-11-21T06:43:35.202Z,75.29
2022-11-21T06:46:04.568Z,74.80
2022-11-21T06:48:37.239Z,74.99
2022-11-21T06:51:07.636Z,74.85
2022-11-21T06:53:36.767Z,74.88
2022-11-21T06:56:06.532Z,75.31
2022-11-21T06:58:36.820Z,75.06
2022-11-21T07:01:08.751Z,75.38
2022-11-21T07:03:37.844Z,75.16
2022-11-21T07:06:07.900Z,75.05
2022-11-21T07:08:37.420Z,75.46
2022-11-21T07:11:25.234Z,75.18
2022-11-21T07:13:56.052Z,75.48
2022-11-21T07:16:36.458Z,74.93
2022-11-21T07:19:15.838Z,75.04
2022-11-21T07:21:45.590Z,75.13
2022-11-21T07:24:14.435Z,75.07
2022-11-21T07:26:43.446Z,75.45
2022-11-21T07:29:12.421Z,75.29
2022-11-21T07:31:45.023Z,75.37
2022-11-21T07:34:16.495Z,75.35
2022-11-21T07:36:46.212Z,75.42
2022-11-21T07:39:15.413Z,75.55
2022-11-21T07:41:44.444Z,75.44
2022-11-21T07:44:17.460Z,75.48
2022-11-21T07:46:53.584Z,75.59
2022-11-21T07:49:23.389Z,75.46
2022-11-21T07:51:52.409Z,75.41
2022-11-21T07:54:21.471Z,75.58
2022-11-21T07:56:50.375Z,75.49
2022-11-21T07:59:27.521Z,75.61
2022-11-21T08:01:56.729Z,75.50
2022-11-21T08:04:30.615Z,75.79
2022-11-21T08:07:00.827Z,75.85
2022-11-21T08:09:30.048Z,75.69
2022-11-21T08:12:01.060Z,75.49
2022-11-21T08:14:30.567Z,75.62
2022-11-21T08:16:59.456Z,75.54
2022-11-21T08:19:29.951Z,75.83
2022-11-21T08:21:59.887Z,75.64
2022-11-21T08:24:29.106Z,75.54
2022-11-21T08:27:00.119Z,75.90
2022-11-21T08:29:28.952Z,75.50
2022-11-21T08:31:58.400Z,75.60
2022-11-21T08:34:27.246Z,75.57
2022-11-21T08:36:59.206Z,75.54
2022-11-21T08:39:30.730Z,75.79
2022-11-21T08:42:03.719Z,75.54
2022-11-21T08:44:34.684Z,75.75
2022-11-21T08:47:04.861Z,75.67
2022-11-21T08:49:35.460Z,75.32
2022-11-21T08:52:05.199Z,75.45
2022-11-21T08:54:34.922Z,75.18
2022-11-21T08:57:04.232Z,75.29
2022-11-21T08:59:33.841Z,75.31
2022-11-21T09:02:02.750Z,76.04
2022-11-21T09:04:31.705Z,75.46
2022-11-21T09:07:03.839Z,75.39
2022-11-21T09:09:34.503Z,75.49
2022-11-21T09:12:03.756Z,75.22
2022-11-21T09:14:51.419Z,74.97
2022-11-21T09:17:38.794Z,75.48
2022-11-21T09:20:09.488Z,74.59
2022-11-21T09:22:38.543Z,75.60
2022-11-21T09:25:08.480Z,75.19
2022-11-21T09:27:38.716Z,75.19
2022-11-21T09:30:09.534Z,74.71
2022-11-21T09:32:39.730Z,75.09
2022-11-21T09:35:09.828Z,74.85
2022-11-21T09:37:38.844Z,72.64
2022-11-21T09:40:14.476Z,71.06
2022-11-21T09:43:01.980Z,70.35
2022-11-21T09:45:35.080Z,69.81
2022-11-21T09:48:09.206Z,69.30
2022-11-21T09:50:42.803Z,68.60
2022-11-21T09:53:16.721Z,67.15
2022-11-21T09:55:49.478Z,66.76
2022-11-21T09:58:29.972Z,66.33
2022-11-21T10:01:01.298Z,65.48
2022-11-21T10:03:35.556Z,64.82
2022-11-21T10:06:12.608Z,65.84
2022-11-21T10:08:48.079Z,65.47
2022-11-21T10:11:24.694Z,64.06
2022-11-21T10:14:09.763Z,64.03
2022-11-21T10:16:49.992Z,63.27
2022-11-21T10:19:44.344Z,62.80
2022-11-21T10:22:39.014Z,63.19
2022-11-21T10:25:14.747Z,62.47
2022-11-21T10:27:50.235Z,61.48
2022-11-21T10:30:21.636Z,61.17
2022-11-21T10:32:54.242Z,61.35
2022-11-21T10:35:24.993Z,61.77
2022-11-21T10:37:58.944Z,61.80
2022-11-21T10:40:37.211Z,61.28
2022-11-21T10:43:35.772Z,61.31
2022-11-21T10:46:04.610Z,61.70
2022-11-21T10:48:34.342Z,61.94
2022-11-21T10:51:22.967Z,62.33
2022-11-21T10:54:23.041Z,63.24
2022-11-21T10:56:53.759Z,64.00
2022-11-21T10:59:30.414Z,63.92
2022-11-21T11:02:01.843Z,64.38
2022-11-21T11:04:44.134Z,65.04
2022-11-21T11:07:28.268Z,65.25
2022-11-21T11:10:26.945Z,65.24
2022-11-21T11:16:16.042Z,66.23
2022-11-21T11:18:51.825Z,65.52
2022-11-21T11:21:22.300Z,65.53
2022-11-21T11:23:53.460Z,66.18
2022-11-21T11:26:27.093Z,65.93
2022-11-21T11:29:10.781Z,65.88
2022-11-21T11:31:54.074Z,66.42
2022-11-21T11:34:24.648Z,66.38
2022-11-21T11:37:06.647Z,66.80
2022-11-21T11:39:41.410Z,67.00
2022-11-21T11:42:55.781Z,66.79
2022-11-21T11:45:58.488Z,66.60
2022-11-21T11:48:29.343Z,66.55
2022-11-21T11:51:03.741Z,67.05
2022-11-21T11:53:35.837Z,66.60
2022-11-21T11:56:13.135Z,66.80
2022-11-21T11:58:45.903Z,66.71
2022-11-21T12:01:19.262Z,67.73
2022-11-21T12:03:59.415Z,67.85
2022-11-21T12:07:41.274Z,67.27
2022-11-21T12:09:36.997Z,67.90
2022-11-21T12:12:12.461Z,67.91
2022-11-21T12:15:23.232Z,67.72
2022-11-21T12:18:08.566Z,67.60
2022-11-21T12:20:46.016Z,68.04
2022-11-21T12:23:15.487Z,67.53
2022-11-21T12:25:53.148Z,68.14
2022-11-21T12:28:30.125Z,67.36
2022-11-21T12:31:09.574Z,67.54
2022-11-21T12:33:49.091Z,68.26
2022-11-21T12:36:41.412Z,68.36
2022-11-21T12:39:49.144Z,67.37
2022-11-21T12:42:45.462Z,68.02
2022-11-21T12:45:29.820Z,67.85
2022-11-21T12:48:34.182Z,67.98
2022-11-21T12:51:43.904Z,68.40
2022-11-21T12:54:38.306Z,67.70
2022-11-21T12:57:14.157Z,67.65
2022-11-21T12:59:52.124Z,67.67
2022-11-21T13:02:29.994Z,67.88
2022-11-21T13:05:01.365Z,67.70
2022-11-21T13:07:32.510Z,68.64
2022-11-21T13:10:12.419Z,68.38
2022-11-21T13:12:48.642Z,68.10
2022-11-21T13:15:24.676Z,67.95
2022-11-21T13:17:58.868Z,67.94
2022-11-21T13:20:34.394Z,68.84
2022-11-21T13:23:06.123Z,68.06
2022-11-21T13:25:47.240Z,68.54
2022-11-21T13:28:37.381Z,69.33
2022-11-21T13:31:28.018Z,68.29
2022-11-21T13:33:58.934Z,68.64
2022-11-21T13:36:42.378Z,69.14
2022-11-21T13:39:38.054Z,69.29
2022-11-21T13:42:30.460Z,69.37
2022-11-21T13:45:23.235Z,69.44
2022-11-21T13:48:11.141Z,68.90
2022-11-21T13:51:16.466Z,69.55
2022-11-21T13:54:09.854Z,68.81
2022-11-21T13:57:03.613Z,69.12
2022-11-21T14:00:00.507Z,69.41
2022-11-21T14:02:53.275Z,68.88
2022-11-21T14:05:48.900Z,69.05
2022-11-21T14:08:21.380Z,70.03
2022-11-21T14:10:52.896Z,69.77
2022-11-21T14:13:27.750Z,69.14
2022-11-21T14:16:21.680Z,70.18
2022-11-21T14:18:51.273Z,69.96
2022-11-21T14:21:26.402Z,69.92
2022-11-21T14:23:58.734Z,69.35
2022-11-21T14:26:31.383Z,70.29
2022-11-21T14:29:18.509Z,69.61
2022-11-21T14:31:50.054Z,70.32
2022-11-21T14:34:27.017Z,69.67
2022-11-21T14:36:59.720Z,70.33
2022-11-21T14:39:43.308Z,70.42
2022-11-21T14:42:15.226Z,70.05
2022-11-21T14:44:44.537Z,70.48
2022-11-21T14:47:23.473Z,70.35
2022-11-21T14:50:06.502Z,70.59
2022-11-21T14:52:37.282Z,70.34
2022-11-21T14:55:32.163Z,70.47
2022-11-21T14:58:06.397Z,70.10
2022-11-21T15:00:58.654Z,69.69
2022-11-21T15:03:27.656Z,70.33
2022-11-21T15:06:05.758Z,70.28
2022-11-21T15:09:33.263Z,69.87
2022-11-21T15:11:35.513Z,70.95
2022-11-21T15:14:16.473Z,71.05
2022-11-21T15:16:49.887Z,70.01
2022-11-21T15:19:22.510Z,70.38
2022-11-21T15:21:53.280Z,70.34
2022-11-21T15:24:32.308Z,71.28
2022-11-21T15:27:21.987Z,70.65
2022-11-21T15:30:12.680Z,70.23
2022-11-21T15:33:06.534Z,71.27
2022-11-21T15:35:49.079Z,71.16
2022-11-21T15:38:26.141Z,71.48
2022-11-21T15:41:04.288Z,71.07
2022-11-21T15:43:43.484Z,71.54
2022-11-21T15:46:17.081Z,70.83
2022-11-21T15:48:47.504Z,71.51
2022-11-21T15:51:20.503Z,71.74
2022-11-21T15:54:02.592Z,70.85
2022-11-21T15:56:32.733Z,70.87
2022-11-21T15:59:07.133Z,70.67
2022-11-21T16:01:51.277Z,71.76
2022-11-21T16:04:25.292Z,70.96
2022-11-21T16:06:57.921Z,70.81
2022-11-21T16:09:29.281Z,70.82
2022-11-21T16:12:00.771Z,70.86
2022-11-21T16:14:30.638Z,71.56
2022-11-21T16:17:00.298Z,71.24
2022-11-21T16:19:30.919Z,71.03
2022-11-21T16:22:00.321Z,71.11
2022-11-21T16:24:31.641Z,71.46
2022-11-21T16:27:02.036Z,72.09
2022-11-21T16:29:31.428Z,71.37
2022-11-21T16:32:00.726Z,71.63
2022-11-21T16:34:30.046Z,71.69
2022-11-21T16:37:04.209Z,71.10
2022-11-21T16:39:37.184Z,71.39
2022-11-21T16:42:09.593Z,71.14
2022-11-21T16:44:38.581Z,72.46
2022-11-21T16:47:08.760Z,71.62
2022-11-21T16:49:42.481Z,71.84
2022-11-21T16:52:12.044Z,71.81
2022-11-21T16:54:40.870Z,71.69
2022-11-21T16:57:09.986Z,71.56
2022-11-21T16:59:38.711Z,72.02
2022-11-21T17:02:09.595Z,71.86
2022-11-21T17:04:39.768Z,71.68
2022-11-21T17:07:11.117Z,71.77
2022-11-21T17:09:41.001Z,72.61
2022-11-21T17:12:11.658Z,71.67
2022-11-21T17:14:40.656Z,72.48
2022-11-21T17:17:09.522Z,72.87
2022-11-21T17:19:38.341Z,71.77
2022-11-21T17:22:07.023Z,72.78
2022-11-21T17:24:36.886Z,72.49
2022-11-21T17:27:07.762Z,72.92
2022-11-21T17:29:37.043Z,72.82
2022-11-21T17:32:06.740Z,72.67
2022-11-21T17:34:37.107Z,72.83
2022-11-21T17:37:06.368Z,72.84
2022-11-21T17:39:37.859Z,72.86
2022-11-21T17:42:07.376Z,72.94
2022-11-21T17:44:37.496Z,73.32
2022-11-21T17:47:06.562Z,72.54
2022-11-21T17:49:37.577Z,72.53
2022-11-21T17:52:07.236Z,72.59
2022-11-21T17:54:36.918Z,73.00
2022-11-21T17:57:05.708Z,73.04
2022-11-21T17:59:38.213Z,72.60
2022-11-21T18:02:07.121Z,72.48
2022-11-21T18:04:38.502Z,72.93
2022-11-21T18:07:07.458Z,72.95
2022-11-21T18:09:40.339Z,73.33
2022-11-21T18:12:12.617Z,73.82
2022-11-21T18:14:41.740Z,72.75
2022-11-21T18:17:11.313Z,73.77
2022-11-21T18:19:40.263Z,73.00
2022-11-21T18:22:09.197Z,73.68
2022-11-21T18:24:38.295Z,72.93
2022-11-21T18:27:09.507Z,73.12
2022-11-21T18:29:39.297Z,73.45
2022-11-21T18:32:08.364Z,73.60
2022-11-21T18:34:37.100Z,73.25
2022-11-21T18:37:06.721Z,73.37
2022-11-21T18:39:36.751Z,74.13
2022-11-21T18:42:05.619Z,73.33
2022-11-21T18:44:39.321Z,73.64
2022-11-21T18:47:19.609Z,73.50
2022-11-21T18:49:49.678Z,74.05
2022-11-21T18:52:18.440Z,73.49
2022-11-21T18:54:48.830Z,74.16
2022-11-21T18:57:17.597Z,73.88
2022-11-21T18:59:47.098Z,73.52
2022-11-21T19:02:16.270Z,74.11
2022-11-21T19:04:50.468Z,74.27
2022-11-21T19:07:19.823Z,74.57
2022-11-21T19:09:48.731Z,73.75
2022-11-21T19:12:17.614Z,74.17
2022-11-21T19:14:47.004Z,73.54
2022-11-21T19:17:16.005Z,74.62
2022-11-21T19:19:44.997Z,74.53
2022-11-21T19:22:13.793Z,74.08
2022-11-21T19:24:42.695Z,74.35
2022-11-21T19:27:11.715Z,74.49
2022-11-21T19:29:40.430Z,74.14
2022-11-21T19:32:09.390Z,74.36
2022-11-21T19:34:38.608Z,74.71
2022-11-21T19:37:07.439Z,74.15
2022-11-21T19:39:36.838Z,74.48
2022-11-21T19:42:06.039Z,74.65
2022-11-21T19:44:37.187Z,74.52
2022-11-21T19:47:06.081Z,74.09
2022-11-21T19:49:35.766Z,74.95
2022-11-21T19:52:04.727Z,74.99
2022-11-21T19:54:34.545Z,75.03
2022-11-21T19:57:04.749Z,74.00
2022-11-21T19:59:35.643Z,74.29
2022-11-21T20:02:04.781Z,74.28
2022-11-21T20:04:34.301Z,75.18
2022-11-21T20:07:07.575Z,74.87
2022-11-21T20:09:37.424Z,74.86
2022-11-21T20:12:06.999Z,74.25
2022-11-21T20:14:38.260Z,74.43
2022-11-21T20:17:06.933Z,74.63
2022-11-21T20:19:37.323Z,75.06
2022-11-21T20:22:06.212Z,75.40
2022-11-21T20:24:41.177Z,74.55
2022-11-21T20:27:13.326Z,74.34
2022-11-21T20:29:42.562Z,75.17
2022-11-21T20:32:11.524Z,75.18
2022-11-21T20:34:40.200Z,75.45
2022-11-21T20:37:08.891Z,74.40
2022-11-21T20:39:37.503Z,75.47
2022-11-21T20:42:06.574Z,74.86
2022-11-21T20:45:41.565Z,74.91
2022-11-21T20:47:28.984Z,75.56
2022-11-21T20:49:58.060Z,75.29
2022-11-21T20:55:15.558Z,75.23
2022-11-21T20:57:44.185Z,75.17
2022-11-21T21:00:16.770Z,75.42
2022-11-21T21:02:46.647Z,74.62
2022-11-21T21:05:15.450Z,75.76
2022-11-21T21:07:44.106Z,74.96
2022-11-21T21:10:12.840Z,75.21
2022-11-21T21:12:47.278Z,75.58
2022-11-21T21:15:17.453Z,75.67
2022-11-21T21:17:46.475Z,75.02
2022-11-21T21:20:15.367Z,75.53
2022-11-21T21:22:43.929Z,75.40
2022-11-21T21:25:12.611Z,74.82
2022-11-21T21:27:41.194Z,75.73
2022-11-21T21:30:12.030Z,75.83
2022-11-21T21:32:40.698Z,75.91
2022-11-21T21:35:10.165Z,75.87
2022-11-21T21:37:38.720Z,75.68
2022-11-21T21:40:11.499Z,75.57
2022-11-21T21:42:40.492Z,76.04
2022-11-21T21:45:10.735Z,75.91
2022-11-21T21:47:39.288Z,75.48
2022-11-21T21:50:15.522Z,75.95
2022-11-21T21:52:44.643Z,75.94
2022-11-21T21:55:13.144Z,75.29
2022-11-21T21:57:47.078Z,75.78
2022-11-21T22:00:18.619Z,75.46
2022-11-21T22:02:47.239Z,75.75
2022-11-21T22:05:16.162Z,75.41
2022-11-21T22:07:44.836Z,76.28
2022-11-21T22:10:13.764Z,75.96
2022-11-21T22:12:44.134Z,75.46
2022-11-21T22:15:13.304Z,75.42
2022-11-21T22:17:42.096Z,75.53
2022-11-21T22:20:11.688Z,76.18
2022-11-21T22:22:40.187Z,76.29
2022-11-21T22:25:10.169Z,75.99
2022-11-21T22:27:39.168Z,75.67
2022-11-21T22:30:11.132Z,75.34
2022-11-21T22:32:39.868Z,75.40
2022-11-21T22:35:09.011Z,75.52
2022-11-21T22:37:37.980Z,75.67
2022-11-21T22:40:08.229Z,76.33
2022-11-21T22:42:37.020Z,76.06
2022-11-21T22:45:08.755Z,75.58
2022-11-21T22:47:37.260Z,76.39
2022-11-21T22:50:08.444Z,76.46
2022-11-21T22:52:37.101Z,75.74
2022-11-21T22:55:07.621Z,76.62
2022-11-21T22:57:37.319Z,76.56
2022-11-21T23:00:08.935Z,76.23
2022-11-21T23:02:37.568Z,76.07
2022-11-21T23:05:07.042Z,76.10
2022-11-21T23:07:36.073Z,76.69
2022-11-21T23:10:07.317Z,76.72
2022-11-21T23:12:36.132Z,76.34
2022-11-21T23:15:09.194Z,75.87
2022-11-21T23:17:37.778Z,76.70
2022-11-21T23:20:07.641Z,76.38
2022-11-21T23:22:36.531Z,76.15
2022-11-21T23:25:05.969Z,76.79
2022-11-21T23:27:38.363Z,75.89
2022-11-21T23:30:10.138Z,75.88
2022-11-21T23:32:38.911Z,76.73
2022-11-21T23:35:08.930Z,75.93
2022-11-21T23:37:37.501Z,76.36
2022-11-21T23:40:09.778Z,76.59
2022-11-21T23:42:38.260Z,76.53
2022-11-21T23:45:09.273Z,76.85
2022-11-21T23:47:37.844Z,76.00
2022-11-21T23:50:07.796Z,76.88
2022-11-21T23:52:36.841Z,76.13
2022-11-21T23:55:06.951Z,76.47
2022-11-21T23:57:38.262Z,76.89
